Time;durP1;ratioP1;P1;durP2;ratioP2;P2;SDS_P1;SDS_P2;PMS_P1;PMS_P2;Temp;Humidity;BMP_temperature;BMP_pressure;BME280_temperature;BME280_humidity;BME280_pressure;Samples;Min_cycle;Max_cycle;Signal;HPM_P1;HPM_P2
2022/04/04 00:01:59;;;;;;;;;;;3.20;99.90;;;;;;2101230;67;20075;-79
2022/04/04 00:04:41;;;;;;;;;;;3.70;99.90;;;;;;2108814;67;20557;-80
2022/04/04 00:07:25;;;;;;;;;;;3.20;99.90;;;;;;2105621;67;20133;-82
2022/04/04 00:10:09;;;;;;;;;;;3.20;99.90;;;;;;2110819;67;20636;-80
2022/04/04 00:12:52;;;;;;;;;;;3.20;99.90;;;;;;2118073;67;20141;-80
2022/04/04 00:15:40;;;;;;;;;;;3.20;99.90;;;;;;2142137;66;20058;-79
2022/04/04 00:18:21;;;;;;;;;;;3.20;99.90;;;;;;2138865;66;20206;-79
2022/04/04 00:21:04;;;;;;;;;;;3.20;99.90;;;;;;2132660;66;20063;-79
2022/04/04 00:23:47;;;;;;;;;;;3.20;99.90;;;;;;2140567;66;20226;-79
2022/04/04 00:26:32;;;;;;;;;;;3.20;99.90;;;;;;2139602;67;20114;-78
2022/04/04 00:29:13;;;;;;;;;;;3.20;99.90;;;;;;2139478;67;20177;-79
2022/04/04 00:31:56;;;;;;;;;;;3.30;99.90;;;;;;2139419;67;20160;-79
2022/04/04 00:34:41;;;;;;;;;;;3.30;99.90;;;;;;2139309;67;20148;-79
2022/04/04 00:37:22;;;;;;;;;;;3.20;99.90;;;;;;2123955;67;20239;-80
2022/04/04 00:40:06;;;;;;;;;;;3.30;99.90;;;;;;2125544;67;20273;-79
2022/04/04 00:42:47;;;;;;;;;;;3.30;99.90;;;;;;2139469;67;20188;-79
2022/04/04 00:45:29;;;;;;;;;;;3.30;99.90;;;;;;2120746;67;20224;-79
2022/04/04 00:48:10;;;;;;;;;;;3.30;99.90;;;;;;2112033;67;20112;-79
2022/04/04 00:50:52;;;;;;;;;;;3.30;99.90;;;;;;2115068;67;20117;-79
2022/04/04 00:53:35;;;;;;;;;;;3.30;99.90;;;;;;2112558;67;20069;-78
2022/04/04 00:56:19;;;;;;;;;;;3.30;99.90;;;;;;2114771;67;20079;-79
2022/04/04 00:59:01;;;;;;;;;;;3.40;99.90;;;;;;2114239;67;20090;-79
2022/04/04 01:01:44;;;;;;;;;;;3.40;99.90;;;;;;2109087;67;20076;-79
2022/04/04 01:04:27;;;;;;;;;;;3.40;99.90;;;;;;2104571;68;20229;-80
2022/04/04 01:07:15;;;;;;;;;;;3.40;99.90;;;;;;2098929;68;20103;-80
2022/04/04 01:10:00;;;;;;;;;;;3.40;99.90;;;;;;2099228;68;20390;-80
2022/04/04 01:12:54;;;;;;;;;;;3.40;99.90;;;;;;2098598;68;20047;-79
2022/04/04 01:15:36;;;;;;;;;;;3.40;99.90;;;;;;2108951;67;20120;-81
2022/04/04 01:18:25;;;;;;;;;;;3.50;99.90;;;;;;2100985;68;20066;-79
2022/04/04 01:21:09;;;;;;;;;;;3.60;99.90;;;;;;2113934;67;20061;-80
2022/04/04 01:23:52;;;;;;;;;;;3.60;99.90;;;;;;2113001;67;20066;-80
2022/04/04 01:26:34;;;;;;;;;;;3.60;99.90;;;;;;2120978;67;20229;-77
2022/04/04 01:29:15;;;;;;;;;;;3.90;99.90;;;;;;2118697;67;20156;-78
2022/04/04 01:31:56;;;;;;;;;;;3.70;99.90;;;;;;2114845;67;20111;-78
2022/04/04 01:34:37;;;;;;;;;;;3.70;99.90;;;;;;2113034;67;20192;-78
2022/04/04 01:37:19;;;;;;;;;;;3.80;99.90;;;;;;2107198;67;20058;-78
2022/04/04 01:40:02;;;;;;;;;;;3.80;99.90;;;;;;2119166;67;20083;-78
2022/04/04 01:42:47;;;;;;;;;;;3.80;99.90;;;;;;2126490;67;20060;-78
2022/04/04 01:48:28;;;;;;;;;;;3.80;99.90;;;;;;2121919;67;20208;-79
2022/04/04 01:51:09;;;;;;;;;;;3.90;99.90;;;;;;2112084;67;20110;-78
2022/04/04 01:53:51;;;;;;;;;;;3.90;99.90;;;;;;2116820;67;20077;-80
2022/04/04 01:56:32;;;;;;;;;;;4.00;99.90;;;;;;2119292;67;20099;-80
2022/04/04 01:59:14;;;;;;;;;;;4.40;99.90;;;;;;2108428;67;20257;-79
2022/04/04 02:01:55;;;;;;;;;;;4.00;99.90;;;;;;2118234;67;20089;-79
2022/04/04 02:04:39;;;;;;;;;;;4.00;99.90;;;;;;2123376;67;20163;-81
2022/04/04 02:07:21;;;;;;;;;;;4.10;99.90;;;;;;2121048;67;20746;-79
2022/04/04 02:10:03;;;;;;;;;;;4.10;99.90;;;;;;2135308;67;20129;-79
2022/04/04 02:12:45;;;;;;;;;;;4.10;99.90;;;;;;2121354;67;20131;-78
2022/04/04 02:15:26;;;;;;;;;;;4.10;99.90;;;;;;2135224;67;20064;-79
2022/04/04 02:18:08;;;;;;;;;;;4.10;99.90;;;;;;2122088;67;20128;-79
2022/04/04 02:20:53;;;;;;;;;;;4.10;99.90;;;;;;2126048;67;20077;-78
2022/04/04 02:23:41;;;;;;;;;;;4.20;99.90;;;;;;2131361;67;20148;-80
2022/04/04 02:26:25;;;;;;;;;;;4.20;99.90;;;;;;2133097;67;20066;-79
2022/04/04 02:29:09;;;;;;;;;;;4.20;99.90;;;;;;2130507;67;20514;-79
2022/04/04 02:31:51;;;;;;;;;;;4.20;99.90;;;;;;2125954;67;20153;-79
2022/04/04 02:34:32;;;;;;;;;;;4.20;99.90;;;;;;2125828;67;20716;-80
2022/04/04 02:37:14;;;;;;;;;;;4.20;99.90;;;;;;2118744;67;20210;-78
2022/04/04 02:39:56;;;;;;;;;;;4.20;99.90;;;;;;2116482;67;20115;-79
2022/04/04 02:42:38;;;;;;;;;;;4.20;99.90;;;;;;2101563;67;20724;-78
2022/04/04 02:45:19;;;;;;;;;;;4.20;99.90;;;;;;2109251;67;20148;-78
2022/04/04 02:48:01;;;;;;;;;;;4.20;99.90;;;;;;2119122;67;20143;-80
2022/04/04 02:50:44;;;;;;;;;;;4.20;99.90;;;;;;2109666;67;20074;-79
2022/04/04 02:53:25;;;;;;;;;;;4.30;99.90;;;;;;2102991;68;20176;-81
2022/04/04 02:56:29;;;;;;;;;;;4.30;99.90;;;;;;2099898;68;20134;-79
2022/04/04 02:59:11;;;;;;;;;;;4.30;99.90;;;;;;2102375;67;20673;-78
2022/04/04 03:01:52;;;;;;;;;;;4.40;99.90;;;;;;2104274;67;20267;-79
2022/04/04 03:04:35;;;;;;;;;;;4.30;99.90;;;;;;2110102;67;20263;-78
2022/04/04 03:07:16;;;;;;;;;;;4.40;99.90;;;;;;2104890;67;20158;-80
2022/04/04 03:10:03;;;;;;;;;;;4.40;99.90;;;;;;2119242;67;20104;-79
2022/04/04 03:12:50;;;;;;;;;;;4.40;99.90;;;;;;2118676;67;20100;-79
2022/04/04 03:15:35;;;;;;;;;;;4.50;99.90;;;;;;2126236;67;20180;-79
2022/04/04 03:18:16;;;;;;;;;;;4.50;99.90;;;;;;2131534;67;20539;-78
2022/04/04 03:20:58;;;;;;;;;;;4.60;99.90;;;;;;2119124;67;20187;-79
2022/04/04 03:23:40;;;;;;;;;;;4.50;99.90;;;;;;2111696;67;20216;-79
2022/04/04 03:26:23;;;;;;;;;;;4.60;99.90;;;;;;2111887;67;20595;-80
2022/04/04 03:29:05;;;;;;;;;;;4.60;99.90;;;;;;2099962;68;20284;-80
2022/04/04 03:31:47;;;;;;;;;;;4.60;99.90;;;;;;2106389;68;20058;-80
2022/04/04 03:34:33;;;;;;;;;;;4.70;99.90;;;;;;2087077;68;20145;-80
2022/04/04 03:37:17;;;;;;;;;;;4.70;99.90;;;;;;2081434;68;20469;-80
2022/04/04 03:39:58;;;;;;;;;;;4.70;99.90;;;;;;2086852;68;20104;-80
2022/04/04 03:42:40;;;;;;;;;;;4.70;99.90;;;;;;2097718;68;20059;-81
2022/04/04 03:45:22;;;;;;;;;;;4.70;99.90;;;;;;2091228;68;20140;-79
2022/04/04 03:48:05;;;;;;;;;;;4.70;99.90;;;;;;2102299;68;20191;-80
2022/04/04 03:50:47;;;;;;;;;;;4.60;99.90;;;;;;2091004;68;20082;-81
2022/04/04 03:53:30;;;;;;;;;;;4.60;99.90;;;;;;2081155;68;20071;-79
2022/04/04 03:56:14;;;;;;;;;;;4.50;99.90;;;;;;2086004;68;20590;-80
2022/04/04 03:58:56;;;;;;;;;;;4.40;99.90;;;;;;2105049;67;20743;-80
2022/04/04 04:01:39;;;;;;;;;;;4.40;99.90;;;;;;2119262;67;20420;-84
2022/04/04 04:04:20;;;;;;;;;;;4.30;99.90;;;;;;2126151;67;20083;-83
2022/04/04 04:07:02;;;;;;;;;;;4.30;99.90;;;;;;2126427;67;20172;-83
2022/04/04 04:09:44;;;;;;;;;;;4.30;99.90;;;;;;2112819;67;20205;-82
2022/04/04 04:12:26;;;;;;;;;;;4.30;99.90;;;;;;2117140;67;20143;-83
2022/04/04 04:15:30;;;;;;;;;;;4.30;99.90;;;;;;2105652;67;20283;-82
2022/04/04 04:18:15;;;;;;;;;;;4.20;99.90;;;;;;2101160;67;20175;-82
2022/04/04 04:21:03;;;;;;;;;;;4.30;99.90;;;;;;2101441;68;20093;-84
2022/04/04 04:23:44;;;;;;;;;;;4.30;99.90;;;;;;2100425;67;20211;-83
2022/04/04 04:26:26;;;;;;;;;;;4.30;99.90;;;;;;2103057;68;20232;-84
2022/04/04 04:29:08;;;;;;;;;;;4.80;99.90;;;;;;2104440;68;20362;-81
2022/04/04 04:31:51;;;;;;;;;;;4.30;99.90;;;;;;2098613;68;20170;-86
2022/04/04 04:34:36;;;;;;;;;;;4.60;99.90;;;;;;2105939;67;20236;-85
2022/04/04 04:37:23;;;;;;;;;;;4.30;99.90;;;;;;2107605;67;20256;-84
2022/04/04 04:40:12;;;;;;;;;;;4.30;99.90;;;;;;2107552;67;20207;-85
2022/04/04 04:42:56;;;;;;;;;;;4.20;99.90;;;;;;2121556;67;20067;-87
2022/04/04 04:45:43;;;;;;;;;;;4.30;99.90;;;;;;2110955;67;20094;-84
2022/04/04 04:48:26;;;;;;;;;;;4.30;99.90;;;;;;2101085;68;20646;-82
2022/04/04 04:51:11;;;;;;;;;;;4.40;99.90;;;;;;2102645;68;20071;-87
2022/04/04 04:53:53;;;;;;;;;;;4.40;99.90;;;;;;2100652;68;20063;-85
2022/04/04 04:56:33;;;;;;;;;;;4.40;99.90;;;;;;2107638;67;20076;-85
2022/04/04 04:59:26;;;;;;;;;;;4.40;99.90;;;;;;2111543;67;20082;-87
2022/04/04 05:02:02;;;;;;;;;;;4.60;99.90;;;;;;2109277;67;20174;-87
2022/04/04 05:04:40;;;;;;;;;;;4.40;99.90;;;;;;2131062;67;20112;-86
2022/04/04 05:07:30;;;;;;;;;;;4.60;99.90;;;;;;2128997;67;20068;-86
2022/04/04 05:10:20;;;;;;;;;;;4.90;99.90;;;;;;2130499;67;20603;-85
2022/04/04 05:12:57;;;;;;;;;;;4.30;99.90;;;;;;2129579;67;20173;-87
2022/04/04 05:15:36;;;;;;;;;;;4.40;99.90;;;;;;2130292;67;20060;-86
2022/04/04 05:18:12;;;;;;;;;;;4.40;99.90;;;;;;2144517;67;20232;-87
2022/04/04 05:20:49;;;;;;;;;;;4.10;99.90;;;;;;2149897;66;20319;-85
2022/04/04 05:23:29;;;;;;;;;;;4.40;99.90;;;;;;2171093;66;20124;-85
2022/04/04 05:26:22;;;;;;;;;;;4.40;99.90;;;;;;2174672;66;20056;-84
2022/04/04 05:29:01;;;;;;;;;;;4.40;99.90;;;;;;2170850;66;20552;-87
2022/04/04 05:31:51;;;;;;;;;;;4.40;99.90;;;;;;2177103;65;20224;-86
2022/04/04 05:34:20;;;;;;;;;;;4.40;99.90;;;;;;2190327;65;20192;-87
2022/04/04 05:36:57;;;;;;;;;;;4.70;99.90;;;;;;2191458;65;20150;-86
2022/04/04 05:39:33;;;;;;;;;;;4.40;99.90;;;;;;2191375;65;20157;-82
2022/04/04 05:42:13;;;;;;;;;;;4.40;99.90;;;;;;2189520;65;20043;-88
2022/04/04 05:45:07;;;;;;;;;;;4.40;99.90;;;;;;2178646;65;20053;-82
2022/04/04 05:47:57;;;;;;;;;;;4.40;99.90;;;;;;2174164;65;20122;-88
2022/04/04 05:50:34;;;;;;;;;;;4.40;99.90;;;;;;2194752;65;20053;-85
2022/04/04 05:53:08;;;;;;;;;;;4.40;99.90;;;;;;2189033;65;20072;-80
2022/04/04 05:55:44;;;;;;;;;;;4.50;99.90;;;;;;2197689;65;20062;-88
2022/04/04 05:58:26;;;;;;;;;;;4.30;99.90;;;;;;2184055;65;20047;-88
2022/04/04 06:01:08;;;;;;;;;;;4.30;99.90;;;;;;2179223;65;20278;-87
2022/04/04 06:03:44;;;;;;;;;;;4.50;99.90;;;;;;2188968;65;20093;-84
2022/04/04 06:06:20;;;;;;;;;;;4.30;99.90;;;;;;2200477;65;20121;-86
2022/04/04 06:08:57;;;;;;;;;;;4.30;99.90;;;;;;2206616;65;20046;-84
2022/04/04 06:11:36;;;;;;;;;;;4.20;99.90;;;;;;2202879;65;20117;-85
2022/04/04 06:14:12;;;;;;;;;;;4.10;99.90;;;;;;2194567;65;20070;-85
2022/04/04 06:16:50;;;;;;;;;;;4.10;99.90;;;;;;2198352;65;20041;-83
2022/04/04 06:19:28;;;;;;;;;;;4.00;99.90;;;;;;2198923;65;20057;-82
2022/04/04 06:22:04;;;;;;;;;;;4.00;99.90;;;;;;2200229;65;20058;-86
2022/04/04 06:24:40;;;;;;;;;;;4.00;99.90;;;;;;2196478;65;20650;-80
2022/04/04 06:27:16;;;;;;;;;;;4.00;99.90;;;;;;2204295;65;20073;-78
2022/04/04 06:29:53;;;;;;;;;;;3.90;99.90;;;;;;2215545;64;20059;-83
2022/04/04 06:32:27;;;;;;;;;;;4.00;99.90;;;;;;2210240;64;20065;-78
2022/04/04 06:35:08;;;;;;;;;;;4.00;99.90;;;;;;2215243;64;20078;-75
2022/04/04 06:37:45;;;;;;;;;;;3.90;99.90;;;;;;2218312;64;20089;-78
2022/04/04 06:40:22;;;;;;;;;;;4.00;99.90;;;;;;2213538;64;20064;-77
2022/04/04 06:42:59;;;;;;;;;;;4.00;99.90;;;;;;2211096;64;20069;-75
2022/04/04 06:45:35;;;;;;;;;;;4.00;99.90;;;;;;2214832;64;20127;-76
2022/04/04 06:48:11;;;;;;;;;;;4.00;99.90;;;;;;2222275;64;20132;-77
2022/04/04 06:50:44;;;;;;;;;;;4.00;99.90;;;;;;2217852;64;20060;-78
2022/04/04 06:53:22;;;;;;;;;;;4.00;99.90;;;;;;2220805;64;20088;-77
2022/04/04 06:55:58;;;;;;;;;;;4.00;99.90;;;;;;2220969;64;20128;-78
2022/04/04 06:58:34;;;;;;;;;;;4.00;99.90;;;;;;2218434;64;20066;-74
2022/04/04 07:01:17;;;;;;;;;;;4.00;99.90;;;;;;2211201;64;20067;-75
2022/04/04 07:04:02;;;;;;;;;;;4.10;99.90;;;;;;2200205;65;20057;-75
2022/04/04 07:06:48;;;;;;;;;;;4.10;99.90;;;;;;2199127;65;20062;-73
2022/04/04 07:09:32;;;;;;;;;;;4.20;99.90;;;;;;2198341;65;20132;-77
2022/04/04 07:12:13;;;;;;;;;;;4.10;99.90;;;;;;2183996;65;20070;-77
2022/04/04 07:14:56;;;;;;;;;;;4.20;99.90;;;;;;2177401;65;20300;-74
2022/04/04 07:17:42;;;;;;;;;;;4.20;99.90;;;;;;2183642;65;20066;-75
2022/04/04 07:20:26;;;;;;;;;;;4.30;99.90;;;;;;2183537;65;20129;-77
2022/04/04 07:23:08;;;;;;;;;;;4.30;99.90;;;;;;2161233;66;20202;-78
2022/04/04 07:25:52;;;;;;;;;;;4.40;99.90;;;;;;2161049;66;20572;-76
2022/04/04 07:28:34;;;;;;;;;;;4.40;99.90;;;;;;2154428;66;20045;-82
2022/04/04 07:31:21;;;;;;;;;;;4.50;99.90;;;;;;2146669;66;20082;-74
2022/04/04 07:34:06;;;;;;;;;;;4.50;99.90;;;;;;2139459;67;20599;-75
2022/04/04 07:36:47;;;;;;;;;;;4.60;99.90;;;;;;2138423;67;20145;-76
2022/04/04 07:39:31;;;;;;;;;;;4.70;99.90;;;;;;2146213;66;20671;-74
2022/04/04 07:42:13;;;;;;;;;;;4.70;99.90;;;;;;2140954;66;20182;-75
2022/04/04 07:44:57;;;;;;;;;;;4.70;99.90;;;;;;2146819;66;20132;-76
2022/04/04 07:47:42;;;;;;;;;;;4.70;99.90;;;;;;2139535;66;20520;-73
2022/04/04 07:50:23;;;;;;;;;;;4.80;99.90;;;;;;2139119;67;20100;-71
2022/04/04 07:53:06;;;;;;;;;;;5.30;99.90;;;;;;2145838;66;20226;-74
2022/04/04 07:55:51;;;;;;;;;;;4.80;99.90;;;;;;2141503;66;20063;-75
2022/04/04 07:58:32;;;;;;;;;;;4.90;99.90;;;;;;2146722;66;20224;-74
2022/04/04 08:01:15;;;;;;;;;;;4.90;99.90;;;;;;2152719;66;20424;-76
2022/04/04 08:03:59;;;;;;;;;;;5.00;99.90;;;;;;2153511;66;20131;-75
2022/04/04 08:06:43;;;;;;;;;;;5.00;99.90;;;;;;2152902;66;20554;-75
2022/04/04 08:09:24;;;;;;;;;;;5.10;99.90;;;;;;2146116;66;20166;-75
2022/04/04 08:12:06;;;;;;;;;;;5.10;99.90;;;;;;2146288;66;20130;-74
2022/04/04 08:14:52;;;;;;;;;;;5.10;99.90;;;;;;2146088;66;20234;-75
2022/04/04 08:17:34;;;;;;;;;;;5.10;99.90;;;;;;2153320;66;20065;-74
2022/04/04 08:20:17;;;;;;;;;;;5.20;99.90;;;;;;2153588;66;20128;-78
2022/04/04 08:23:01;;;;;;;;;;;5.20;99.90;;;;;;2153550;66;20305;-79
2022/04/04 08:25:43;;;;;;;;;;;5.30;99.90;;;;;;2145980;66;20071;-78
2022/04/04 08:28:27;;;;;;;;;;;5.30;99.90;;;;;;2132069;67;20079;-75
2022/04/04 08:31:11;;;;;;;;;;;5.30;99.90;;;;;;2118821;67;20211;-78
2022/04/04 08:33:53;;;;;;;;;;;5.30;99.90;;;;;;2124063;67;20311;-80
2022/04/04 08:36:34;;;;;;;;;;;5.40;99.90;;;;;;2131868;67;20227;-75
2022/04/04 08:39:16;;;;;;;;;;;5.40;99.90;;;;;;2124685;67;20078;-78
2022/04/04 08:42:03;;;;;;;;;;;5.40;99.90;;;;;;2124758;67;20154;-75
2022/04/04 08:44:46;;;;;;;;;;;5.40;99.90;;;;;;2138957;67;20578;-77
2022/04/04 08:47:29;;;;;;;;;;;5.40;99.90;;;;;;2119621;67;20095;-76
2022/04/04 08:50:11;;;;;;;;;;;5.40;99.90;;;;;;2118617;67;20759;-81
2022/04/04 08:52:53;;;;;;;;;;;5.50;99.90;;;;;;2103792;67;20451;-76
2022/04/04 08:55:37;;;;;;;;;;;5.50;99.90;;;;;;2108953;67;20516;-76
2022/04/04 08:58:20;;;;;;;;;;;5.50;99.90;;;;;;2124732;67;20518;-76
2022/04/04 09:01:01;;;;;;;;;;;5.50;99.90;;;;;;2124838;67;20320;-76
2022/04/04 09:03:45;;;;;;;;;;;5.60;99.90;;;;;;2124366;67;20089;-75
2022/04/04 09:06:31;;;;;;;;;;;5.60;99.90;;;;;;2124534;67;20216;-75
2022/04/04 09:09:35;;;;;;;;;;;5.60;99.90;;;;;;2110338;67;20532;-75
2022/04/04 09:12:23;;;;;;;;;;;5.60;99.90;;;;;;2119549;67;20660;-75
2022/04/04 09:15:06;;;;;;;;;;;5.60;99.90;;;;;;2111472;67;20777;-75
2022/04/04 09:17:47;;;;;;;;;;;5.60;99.90;;;;;;2116235;67;20118;-76
2022/04/04 09:20:29;;;;;;;;;;;5.70;99.90;;;;;;2116057;67;20996;-75
2022/04/04 09:23:10;;;;;;;;;;;5.70;99.90;;;;;;2128284;67;20084;-78
2022/04/04 09:25:51;;;;;;;;;;;5.70;99.90;;;;;;2118981;67;20146;-80
2022/04/04 09:28:33;;;;;;;;;;;5.70;99.90;;;;;;2116474;67;20193;-77
2022/04/04 09:31:14;;;;;;;;;;;5.70;99.90;;;;;;2102680;68;20592;-77
2022/04/04 09:33:58;;;;;;;;;;;5.70;99.90;;;;;;2108927;67;20630;-78
2022/04/04 09:36:46;;;;;;;;;;;6.50;99.90;;;;;;2100009;67;20284;-78
2022/04/04 09:39:33;;;;;;;;;;;5.80;99.90;;;;;;2102291;68;20126;-79
2022/04/04 09:42:16;;;;;;;;;;;5.80;99.90;;;;;;2103496;67;20145;-80
2022/04/04 09:45:02;;;;;;;;;;;5.80;99.90;;;;;;2117413;67;20250;-79
2022/04/04 09:47:46;;;;;;;;;;;5.90;99.90;;;;;;2124031;67;20215;-78
2022/04/04 09:50:32;;;;;;;;;;;5.90;99.90;;;;;;2125397;67;20266;-81
2022/04/04 09:53:24;;;;;;;;;;;6.00;99.90;;;;;;2132681;67;20152;-80
2022/04/04 09:56:05;;;;;;;;;;;6.10;99.90;;;;;;2128686;67;20153;-75
2022/04/04 09:58:47;;;;;;;;;;;6.00;99.90;;;;;;2130515;67;20128;-75
2022/04/04 10:01:35;;;;;;;;;;;6.10;99.90;;;;;;2143380;66;20286;-76
2022/04/04 10:04:19;;;;;;;;;;;6.10;99.90;;;;;;2149181;66;20125;-78
2022/04/04 10:07:08;;;;;;;;;;;6.10;99.90;;;;;;2146810;66;20610;-78
2022/04/04 10:09:51;;;;;;;;;;;6.20;99.90;;;;;;2148796;66;20800;-77
2022/04/04 10:12:36;;;;;;;;;;;6.20;99.90;;;;;;2142738;66;20062;-77
2022/04/04 10:15:17;;;;;;;;;;;6.20;99.90;;;;;;2135406;67;20134;-79
2022/04/04 10:17:59;;;;;;;;;;;6.40;99.90;;;;;;2127923;67;20230;-74
2022/04/04 10:20:52;;;;;;;;;;;6.30;99.90;;;;;;2122310;67;20049;-82
2022/04/04 10:23:37;;;;;;;;;;;6.30;99.90;;;;;;2119731;67;20754;-82
2022/04/04 10:26:21;;;;;;;;;;;6.30;99.90;;;;;;2120889;67;20065;-80
2022/04/04 10:29:08;;;;;;;;;;;6.40;99.90;;;;;;2129575;67;20150;-78
2022/04/04 10:31:49;;;;;;;;;;;6.40;99.90;;;;;;2128420;67;20187;-79
2022/04/04 10:34:43;;;;;;;;;;;6.40;99.90;;;;;;2136803;67;20179;-80
2022/04/04 10:37:30;;;;;;;;;;;6.40;99.90;;;;;;2141293;66;20443;-82
2022/04/04 10:40:19;;;;;;;;;;;6.50;99.90;;;;;;2141010;67;20093;-83
2022/04/04 10:43:13;;;;;;;;;;;6.50;99.90;;;;;;2124109;67;20082;-82
2022/04/04 10:45:58;;;;;;;;;;;6.50;99.90;;;;;;2108923;67;20326;-83
2022/04/04 10:48:42;;;;;;;;;;;6.50;99.90;;;;;;2111846;67;20070;-80
2022/04/04 10:51:30;;;;;;;;;;;6.50;99.90;;;;;;2102097;68;20589;-81
2022/04/04 10:54:12;;;;;;;;;;;6.60;99.90;;;;;;2118629;67;20277;-81
2022/04/04 10:56:58;;;;;;;;;;;6.60;99.90;;;;;;2107084;67;20201;-82
2022/04/04 10:59:40;;;;;;;;;;;6.50;99.90;;;;;;2102964;68;20270;-78
2022/04/04 11:02:23;;;;;;;;;;;6.60;99.90;;;;;;2118425;67;20707;-82
2022/04/04 11:08:43;;;;;;;;;;;6.70;99.90;;;;;;2118267;67;20143;-79
2022/04/04 11:11:45;;;;;;;;;;;6.70;99.90;;;;;;2116521;67;20265;-82
2022/04/04 11:14:26;;;;;;;;;;;6.80;99.90;;;;;;2130941;67;20199;-80
2022/04/04 11:17:17;;;;;;;;;;;6.80;99.90;;;;;;2122224;67;20089;-81
2022/04/04 11:20:21;;;;;;;;;;;6.80;99.90;;;;;;2109748;67;20501;-80
2022/04/04 11:23:11;;;;;;;;;;;6.80;99.90;;;;;;2111209;67;20057;-79
2022/04/04 11:25:52;;;;;;;;;;;6.90;99.90;;;;;;2106129;67;20100;-81
2022/04/04 11:28:38;;;;;;;;;;;7.00;99.90;;;;;;2117854;67;20084;-83
2022/04/04 11:31:23;;;;;;;;;;;7.30;99.90;;;;;;2117452;67;20155;-83
2022/04/04 11:34:12;;;;;;;;;;;7.00;99.90;;;;;;2103978;67;20070;-83
2022/04/04 11:36:55;;;;;;;;;;;7.10;99.90;;;;;;2109271;67;20138;-81
2022/04/04 11:39:41;;;;;;;;;;;7.10;99.90;;;;;;2121531;67;20242;-82
2022/04/04 11:42:25;;;;;;;;;;;7.10;99.90;;;;;;2117321;67;20141;-83
2022/04/04 11:45:10;;;;;;;;;;;7.10;99.90;;;;;;2116137;67;20105;-82
2022/04/04 11:47:52;;;;;;;;;;;7.20;99.90;;;;;;2107304;67;20273;-83
2022/04/04 11:50:34;;;;;;;;;;;7.10;99.90;;;;;;2109285;67;20144;-82
2022/04/04 11:53:16;;;;;;;;;;;7.10;99.90;;;;;;2110834;67;20520;-81
2022/04/04 11:56:02;;;;;;;;;;;7.40;99.90;;;;;;2110817;67;20244;-81
2022/04/04 11:58:51;;;;;;;;;;;7.20;99.90;;;;;;2105215;67;20318;-84
2022/04/04 12:01:35;;;;;;;;;;;7.20;99.90;;;;;;2095709;68;20242;-82
2022/04/04 12:04:21;;;;;;;;;;;7.20;99.90;;;;;;2103413;67;20718;-80
2022/04/04 12:07:03;;;;;;;;;;;7.30;99.90;;;;;;2110926;67;20176;-81
2022/04/04 12:09:51;;;;;;;;;;;7.20;99.90;;;;;;2112588;67;20562;-82
2022/04/04 12:12:33;;;;;;;;;;;7.30;99.90;;;;;;2133346;67;20746;-78
2022/04/04 12:15:25;;;;;;;;;;;7.30;99.90;;;;;;2134268;67;20075;-81
2022/04/04 12:18:07;;;;;;;;;;;7.30;99.90;;;;;;2146919;66;20051;-82
2022/04/04 12:20:49;;;;;;;;;;;7.40;99.90;;;;;;2137264;66;20320;-80
2022/04/04 12:26:30;;;;;;;;;;;7.50;99.90;;;;;;2136478;66;20047;-82
2022/04/04 12:29:15;;;;;;;;;;;7.50;99.90;;;;;;2129722;67;20153;-82
2022/04/04 12:31:57;;;;;;;;;;;7.60;99.90;;;;;;2128549;67;20342;-82
2022/04/04 12:34:39;;;;;;;;;;;7.60;99.90;;;;;;2106123;67;20076;-83
2022/04/04 12:37:20;;;;;;;;;;;7.60;99.90;;;;;;2089412;68;20132;-82
2022/04/04 12:40:31;;;;;;;;;;;7.70;99.90;;;;;;2076266;68;20077;-82
2022/04/04 12:43:12;;;;;;;;;;;7.70;99.90;;;;;;2074611;69;20130;-83
2022/04/04 12:45:54;;;;;;;;;;;7.80;99.90;;;;;;2077326;69;20064;-83
2022/04/04 12:48:38;;;;;;;;;;;7.90;99.90;;;;;;2084351;68;20227;-74
2022/04/04 12:51:29;;;;;;;;;;;7.90;99.90;;;;;;2078999;68;20740;-82
2022/04/04 12:54:22;;;;;;;;;;;8.00;99.90;;;;;;2077351;68;20081;-82
2022/04/04 12:57:05;;;;;;;;;;;8.00;99.90;;;;;;2089508;68;20085;-78
2022/04/04 12:59:57;;;;;;;;;;;8.00;99.90;;;;;;2083685;68;20345;-78
2022/04/04 13:02:39;;;;;;;;;;;8.20;99.90;;;;;;2083821;68;20137;-77
2022/04/04 13:05:26;;;;;;;;;;;8.10;99.90;;;;;;2086917;68;20140;-79
2022/04/04 13:08:22;;;;;;;;;;;8.10;99.90;;;;;;2079340;68;20635;-80
2022/04/04 13:11:04;;;;;;;;;;;8.20;99.90;;;;;;2079847;68;20402;-83
2022/04/04 13:14:05;;;;;;;;;;;8.20;99.90;;;;;;2086222;68;20625;-82
2022/04/04 13:16:48;;;;;;;;;;;8.30;99.90;;;;;;2068554;69;20091;-80
2022/04/04 13:19:31;;;;;;;;;;;8.30;99.90;;;;;;2086923;68;20231;-77
2022/04/04 13:22:17;;;;;;;;;;;8.40;99.90;;;;;;2110624;67;20344;-76
2022/04/04 13:25:01;;;;;;;;;;;8.40;99.90;;;;;;2122831;67;20094;-76
2022/04/04 13:27:48;;;;;;;;;;;8.50;99.90;;;;;;2120910;67;20169;-79
2022/04/04 13:30:33;;;;;;;;;;;8.50;99.90;;;;;;2120364;67;20153;-79
2022/04/04 13:33:15;;;;;;;;;;;8.60;99.90;;;;;;2113067;67;20669;-78
2022/04/04 13:36:01;;;;;;;;;;;8.60;99.90;;;;;;2117404;67;20189;-77
2022/04/04 13:38:55;;;;;;;;;;;8.70;99.90;;;;;;2131705;67;20076;-80
2022/04/04 13:41:37;;;;;;;;;;;8.80;99.90;;;;;;2140156;66;20076;-80
2022/04/04 13:44:07;;;;;;;;;;;8.80;99.90;;;;;;2134823;67;20085;-80
2022/04/04 13:46:47;;;;;;;;;;;8.80;99.90;;;;;;2135181;66;20075;-79
2022/04/04 13:49:28;;;;;;;;;;;8.90;99.90;;;;;;2133759;67;20079;-78
2022/04/04 13:51:58;;;;;;;;;;;8.90;99.90;;;;;;2132754;66;20072;-79
2022/04/04 13:54:36;;;;;;;;;;;8.90;99.90;;;;;;2147365;66;20066;-78
2022/04/04 13:57:12;;;;;;;;;;;8.90;99.90;;;;;;2140036;66;20069;-77
2022/04/04 13:59:42;;;;;;;;;;;9.00;99.90;;;;;;2146270;66;20106;-80
2022/04/04 14:02:20;;;;;;;;;;;8.90;99.90;;;;;;2147093;66;20074;-79
2022/04/04 14:04:56;;;;;;;;;;;8.90;99.90;;;;;;2147165;66;20124;-79
2022/04/04 14:07:32;;;;;;;;;;;8.90;99.90;;;;;;2146757;66;20104;-79
2022/04/04 14:10:00;;;;;;;;;;;8.90;99.90;;;;;;2157424;65;20551;-79
2022/04/04 14:12:39;;;;;;;;;;;8.90;99.90;;;;;;2171447;65;20206;-81
2022/04/04 14:15:14;;;;;;;;;;;8.90;99.90;;;;;;2184565;65;20630;-81
2022/04/04 14:17:50;;;;;;;;;;;9.00;99.90;;;;;;2184358;65;20258;-80
2022/04/04 14:20:29;;;;;;;;;;;9.00;99.90;;;;;;2192169;65;20610;-80
2022/04/04 14:23:10;;;;;;;;;;;9.00;99.90;;;;;;2186308;65;20220;-77
2022/04/04 14:25:48;;;;;;;;;;;8.90;99.90;;;;;;2185721;65;20102;-84
2022/04/04 14:28:41;;;;;;;;;;;9.00;99.90;;;;;;2192680;65;20079;-83
2022/04/04 14:31:18;;;;;;;;;;;9.00;99.90;;;;;;2192451;65;20123;-83
2022/04/04 14:33:56;;;;;;;;;;;9.10;99.90;;;;;;2198207;65;20087;-78
2022/04/04 14:36:32;;;;;;;;;;;9.10;99.90;;;;;;2199796;65;20093;-79
2022/04/04 14:39:15;;;;;;;;;;;9.10;99.90;;;;;;2191987;65;20179;-78
2022/04/04 14:41:59;;;;;;;;;;;9.20;99.90;;;;;;2191229;65;20557;-79
2022/04/04 14:44:44;;;;;;;;;;;9.20;99.90;;;;;;2176334;65;20075;-79
2022/04/04 14:47:29;;;;;;;;;;;10.20;99.90;;;;;;2154027;66;20171;-78
2022/04/04 14:50:15;;;;;;;;;;;9.40;99.90;;;;;;2146160;66;20509;-78
2022/04/04 14:52:59;;;;;;;;;;;9.40;99.90;;;;;;2132440;67;20217;-80
2022/04/04 14:55:42;;;;;;;;;;;9.40;99.90;;;;;;2125327;67;20049;-79
2022/04/04 14:58:26;;;;;;;;;;;9.40;99.90;;;;;;2112707;67;20214;-79
2022/04/04 15:01:11;;;;;;;;;;;9.50;99.90;;;;;;2118131;67;20125;-79
2022/04/04 15:03:53;;;;;;;;;;;9.40;99.90;;;;;;2104478;68;20133;-78
2022/04/04 15:06:35;;;;;;;;;;;9.30;99.90;;;;;;2104307;68;20130;-77
2022/04/04 15:09:18;;;;;;;;;;;9.30;99.90;;;;;;2104793;67;20255;-77
2022/04/04 15:11:59;;;;;;;;;;;9.30;99.90;;;;;;2111373;67;20191;-77
2022/04/04 15:14:41;;;;;;;;;;;9.30;99.90;;;;;;2111229;67;20097;-80
2022/04/04 15:17:24;;;;;;;;;;;9.30;99.90;;;;;;2104544;67;20699;-81
2022/04/04 15:20:10;;;;;;;;;;;9.40;99.90;;;;;;2109303;67;20073;-75
2022/04/04 15:22:51;;;;;;;;;;;9.40;99.90;;;;;;2110458;67;20111;-77
2022/04/04 15:25:34;;;;;;;;;;;9.30;99.90;;;;;;2104125;68;20051;-79
2022/04/04 15:28:18;;;;;;;;;;;9.40;99.90;;;;;;2111123;67;20593;-76
2022/04/04 15:31:02;;;;;;;;;;;9.40;99.90;;;;;;2127084;67;20554;-75
2022/04/04 15:33:48;;;;;;;;;;;9.40;99.90;;;;;;2142717;66;20073;-77
2022/04/04 15:36:40;;;;;;;;;;;9.40;99.90;;;;;;2145709;66;20155;-77
2022/04/04 15:39:24;;;;;;;;;;;9.40;99.90;;;;;;2132517;67;20254;-81
2022/04/04 15:42:12;;;;;;;;;;;9.40;99.90;;;;;;2119442;67;20210;-80
2022/04/04 15:44:54;;;;;;;;;;;9.40;99.90;;;;;;2126052;67;20182;-79
2022/04/04 15:47:41;;;;;;;;;;;9.50;99.90;;;;;;2139013;67;20260;-76
2022/04/04 15:50:25;;;;;;;;;;;9.60;99.90;;;;;;2139521;67;20277;-76
2022/04/04 15:53:15;;;;;;;;;;;9.70;99.90;;;;;;2125127;67;20144;-76
2022/04/04 15:56:01;;;;;;;;;;;9.60;99.90;;;;;;2136231;67;20067;-78
2022/04/04 15:58:42;;;;;;;;;;;9.50;99.90;;;;;;2139305;66;20497;-78
2022/04/04 16:01:24;;;;;;;;;;;9.40;99.90;;;;;;2134321;66;20221;-77
2022/04/04 16:04:06;;;;;;;;;;;9.40;99.90;;;;;;2138281;67;20098;-78
2022/04/04 16:06:49;;;;;;;;;;;9.30;99.90;;;;;;2138237;67;20189;-80
2022/04/04 16:09:34;;;;;;;;;;;9.30;99.90;;;;;;2125155;67;20081;-80
2022/04/04 16:12:18;;;;;;;;;;;9.40;99.90;;;;;;2131548;67;20071;-78
2022/04/04 16:15:00;;;;;;;;;;;9.40;99.90;;;;;;2125346;67;20060;-77